Time;durP1;ratioP1;P1;durP2;ratioP2;P2;SDS_P1;SDS_P2;PMS_P1;PMS_P2;Temp;Humidity;BMP_temperature;BMP_pressure;BME280_temperature;BME280_humidity;BME280_pressure;Samples;Min_cycle;Max_cycle;Signal;HPM_P1;HPM_P2
2021/01/21 00:01:43;;;;;;;75.85;25.50;;;;;;;2.40;76.01;99240.06;120058;1150;23080;-63
2021/01/21 00:04:13;;;;;;;;;;;;;;;2.38;76.27;99222.44;120027;1150;22913;-62
2021/01/21 00:06:44;;;;;;;58.03;20.63;;;;;;;2.32;76.05;99230.52;119986;1150;25914;-62
2021/01/21 00:09:16;;;;;;;52.45;18.90;;;;;;;2.31;76.11;99237.25;120066;1150;25860;-62
2021/01/21 00:11:46;;;;;;;53.10;20.00;;;;;;;2.31;76.47;99228.22;120034;1151;22944;-61
2021/01/21 00:14:16;;;;;;;53.50;18.92;;;;;;;2.29;75.91;99234.18;120035;1151;25327;-62
2021/01/21 00:16:47;;;;;;;54.58;18.48;;;;;;;2.29;76.27;99234.18;120131;1149;23014;-62
2021/01/21 00:19:18;;;;;;;57.58;20.72;;;;;;;2.29;76.50;99230.66;120098;1150;22961;-62
2021/01/21 00:21:48;;;;;;;45.87;18.87;;;;;;;2.28;76.14;99238.13;120206;1149;23083;-62
2021/01/21 00:24:19;;;;;;;57.35;21.82;;;;;;;2.26;76.12;99226.02;119972;1150;25986;-63
2021/01/21 00:26:49;;;;;;;60.80;22.60;;;;;;;2.22;75.90;99223.41;120018;1151;22929;-62
2021/01/21 00:29:20;;;;;;;54.20;20.77;;;;;;;2.19;76.37;99227.04;119993;1150;22934;-63
2021/01/21 00:31:50;;;;;;;49.70;19.33;;;;;;;2.15;76.05;99218.13;119965;1151;23387;-62
2021/01/21 00:34:20;;;;;;;53.33;20.17;;;;;;;2.15;76.54;99222.89;120014;1151;22927;-63
2021/01/21 00:36:50;;;;;;;62.43;23.55;;;;;;;2.11;76.31;99214.73;120032;1151;22951;-62
2021/01/21 00:39:19;;;;;;;;;;;;;;;2.07;75.92;99210.59;120007;1150;27727;-62
2021/01/21 00:41:50;;;;;;;75.10;29.47;;;;;;;2.03;76.35;99223.72;119970;1151;21569;-62
2021/01/21 00:44:18;;;;;;;;;;;;;;;1.99;76.63;99223.81;120111;1150;24580;-63
2021/01/21 00:46:50;;;;;;;67.90;25.20;;;;;;;1.94;76.37;99213.39;120004;1150;25696;-62
2021/01/21 00:49:20;;;;;;;67.43;25.63;;;;;;;1.91;76.45;99213.49;120058;1150;23026;-62
2021/01/21 00:51:52;;;;;;;60.73;24.53;;;;;;;1.85;76.57;99210.55;120095;1149;23117;-62
2021/01/21 00:54:22;;;;;;;57.60;21.70;;;;;;;1.80;76.67;99205.59;120020;1150;22931;-63
2021/01/21 00:56:53;;;;;;;54.03;21.45;;;;;;;1.76;76.25;99204.95;119973;1149;23035;-63
2021/01/21 00:59:23;;;;;;;48.93;19.07;;;;;;;1.74;77.04;99201.13;120129;1150;22931;-62
2021/01/21 01:01:53;;;;;;;46.25;18.95;;;;;;;1.72;76.80;99200.80;119983;1150;22962;-63
2021/01/21 01:04:22;;;;;;;;;;;;;;;1.69;76.49;99191.45;120125;1150;22985;-63
2021/01/21 01:06:54;;;;;;;46.50;16.50;;;;;;;1.68;77.17;99191.90;120157;1150;21608;-63
2021/01/21 01:09:24;;;;;;;45.37;17.53;;;;;;;1.67;77.06;99196.62;119985;1150;27614;-62
2021/01/21 01:11:54;;;;;;;;;;;;;;;1.66;77.52;99195.08;120065;1150;22943;-62
2021/01/21 01:14:25;;;;;;;43.03;16.43;;;;;;;1.65;77.21;99186.05;120043;1151;21585;-63
2021/01/21 01:16:55;;;;;;;42.88;15.55;;;;;;;1.61;77.07;99177.14;119945;1151;23317;-62
2021/01/21 01:19:25;;;;;;;40.65;14.53;;;;;;;1.61;77.12;99173.64;119930;1150;22847;-63
2021/01/21 01:21:55;;;;;;;40.58;13.43;;;;;;;1.61;77.36;99177.14;120017;1150;22925;-62
2021/01/21 01:24:26;;;;;;;36.47;13.90;;;;;;;1.62;77.76;99175.94;120010;1151;22940;-62
2021/01/21 01:26:56;;;;;;;35.15;11.73;;;;;;;1.63;77.22;99168.47;120021;1150;22958;-62
2021/01/21 01:29:27;;;;;;;30.90;11.28;;;;;;;1.64;77.04;99170.77;119981;1150;22943;-63
2021/01/21 01:31:56;;;;;;;;;;;;;;;1.64;77.34;99165.27;120004;1150;22942;-63
2021/01/21 01:34:26;;;;;;;34.30;10.90;;;;;;;1.67;77.56;99171.87;119943;1150;23352;-62
2021/01/21 01:36:56;;;;;;;29.95;10.58;;;;;;;1.69;77.81;99172.19;119885;1150;22987;-62
2021/01/21 01:39:25;;;;;;;26.77;9.73;;;;;;;1.71;78.00;99172.52;119982;1150;26031;-63
2021/01/21 01:41:55;;;;;;;30.27;8.83;;;;;;;1.74;77.86;99173.61;119926;1150;27883;-64
2021/01/21 01:44:25;;;;;;;32.35;10.38;;;;;;;1.77;77.19;99181.73;119975;1150;22845;-62
2021/01/21 01:46:55;;;;;;;29.52;9.90;;;;;;;1.78;77.43;99168.75;120123;1150;22985;-64
2021/01/21 01:49:25;;;;;;;30.37;11.97;;;;;;;1.79;77.05;99173.80;119966;1151;23138;-64
2021/01/21 01:51:56;;;;;;;31.63;10.83;;;;;;;1.81;77.14;99165.88;119945;1150;22960;-62
2021/01/21 01:54:25;;;;;;;25.70;9.10;;;;;;;1.82;77.79;99159.14;120008;1150;22936;-62
2021/01/21 01:56:55;;;;;;;30.70;10.60;;;;;;;1.82;77.75;99155.64;119967;1150;26059;-63
2021/01/21 01:59:26;;;;;;;27.20;9.70;;;;;;;1.82;78.04;99164.64;119969;1151;23250;-62
2021/01/21 02:01:56;;;;;;;28.17;9.03;;;;;;;1.84;77.71;99164.99;119939;1150;26018;-62
2021/01/21 02:04:26;;;;;;;28.32;10.05;;;;;;;1.87;77.79;99164.09;120174;1150;22958;-64
2021/01/21 02:06:57;;;;;;;28.63;9.13;;;;;;;1.89;77.94;99164.41;120124;1150;26770;-63
2021/01/21 02:09:29;;;;;;;25.95;10.28;;;;;;;1.91;77.80;99166.70;120102;1150;22933;-63
2021/01/21 02:12:14;;;;;;;32.30;11.63;;;;;;;1.92;77.56;99169.03;120101;1150;24593;-63
2021/01/21 02:14:51;;;;;;;33.30;12.60;;;;;;;1.92;77.60;99166.28;120036;1149;22944;-64
2021/01/21 02:17:29;;;;;;;36.30;14.80;;;;;;;1.94;77.96;99166.60;120159;1149;22936;-62
2021/01/21 02:20:35;;;;;;;38.53;14.60;;;;;;;1.94;77.79;99169.36;120027;1150;22987;-62
2021/01/21 02:23:36;;;;;;;36.30;14.10;;;;;;;1.96;77.75;99163.39;119955;1151;23031;-62
2021/01/21 02:26:10;;;;;;;36.10;15.37;;;;;;;1.95;77.45;99161.84;119603;1153;23073;-62
2021/01/21 02:29:08;;;;;;;34.10;14.10;;;;;;;1.95;78.04;99164.59;119642;1153;24598;-62
2021/01/21 02:32:10;;;;;;;38.40;15.13;;;;;;;1.95;77.80;99156.34;119679;1153;22969;-63
2021/01/21 02:34:47;;;;;;;44.13;16.17;;;;;;;1.91;77.94;99159.22;119705;1153;22953;-62
2021/01/21 02:37:23;;;;;;;37.30;13.93;;;;;;;1.91;78.20;99166.70;119746;1154;23043;-60
2021/01/21 02:39:54;;;;;;;34.60;14.40;;;;;;;1.89;78.46;99167.16;119703;1153;22939;-62
2021/01/21 02:42:25;;;;;;;37.67;14.47;;;;;;;1.90;77.84;99165.95;119530;1153;23023;-62
2021/01/21 02:44:54;;;;;;;;;;;;;;;1.89;78.40;99161.66;119813;1153;26389;-61
2021/01/21 02:47:26;;;;;;;34.30;12.65;;;;;;;1.87;78.06;99166.06;119669;1153;24359;-62
2021/01/21 02:49:56;;;;;;;30.87;12.60;;;;;;;1.87;78.20;99161.33;119662;1154;23111;-62
2021/01/21 02:52:36;;;;;;;32.48;12.30;;;;;;;1.87;77.90;99158.58;119688;1153;23389;-62
2021/01/21 02:55:14;;;;;;;36.45;13.65;;;;;;;1.89;78.56;99158.12;119627;1154;22916;-61
2021/01/21 02:57:55;;;;;;;30.83;11.77;;;;;;;1.89;78.16;99158.91;119652;1153;22927;-63
2021/01/21 03:00:26;;;;;;;30.85;13.35;;;;;;;1.89;78.65;99167.16;119662;1153;23084;-64
2021/01/21 03:03:00;;;;;;;33.05;14.10;;;;;;;1.90;78.42;99154.17;119716;1151;26069;-64
2021/01/21 03:05:32;;;;;;;41.17;15.73;;;;;;;1.89;78.33;99164.41;120051;1150;23393;-62
2021/01/21 03:08:03;;;;;;;35.55;13.40;;;;;;;1.91;78.20;99163.95;120047;1150;22964;-63
2021/01/21 03:10:33;;;;;;;33.33;14.00;;;;;;;1.89;78.04;99158.91;120093;1150;22954;-63
2021/01/21 03:13:04;;;;;;;28.95;12.05;;;;;;;1.89;77.99;99160.88;120017;1149;25049;-62
2021/01/21 03:15:33;;;;;;;;;;;;;;;1.88;78.70;99151.88;119911;1150;22927;-63
2021/01/21 03:18:04;;;;;;;36.03;13.27;;;;;;;1.86;78.19;99153.53;119986;1150;21576;-65
2021/01/21 03:20:36;;;;;;;33.27;13.73;;;;;;;1.86;78.82;99157.06;120182;1149;22961;-62
2021/01/21 03:23:06;;;;;;;29.20;11.03;;;;;;;1.84;78.68;99142.20;119978;1150;22895;-63
2021/01/21 03:25:38;;;;;;;31.13;10.40;;;;;;;1.84;78.56;99144.95;119983;1150;22943;-62
2021/01/21 03:28:08;;;;;;;28.40;10.48;;;;;;;1.84;78.40;99158.72;119971;1150;22926;-62
2021/01/21 03:30:38;;;;;;;27.10;10.78;;;;;;;1.85;78.80;99157.48;119923;1150;25967;-61
2021/01/21 03:33:08;;;;;;;28.75;10.30;;;;;;;1.84;78.80;99162.24;119974;1150;22944;-62
2021/01/21 03:35:38;;;;;;;30.48;11.22;;;;;;;1.85;78.83;99163.77;120094;1150;23506;-62
2021/01/21 03:38:08;;;;;;;29.03;10.63;;;;;;;1.86;78.76;99164.54;120146;1150;22913;-62
2021/01/21 03:40:38;;;;;;;33.02;11.65;;;;;;;1.85;78.82;99166.52;120097;1150;22979;-62
2021/01/21 03:43:08;;;;;;;28.12;10.70;;;;;;;1.86;78.84;99170.82;119986;1150;25945;-62
2021/01/21 03:45:38;;;;;;;26.10;10.70;;;;;;;1.88;78.42;99175.88;120019;1150;22942;-61
2021/01/21 03:48:10;;;;;;;25.85;10.98;;;;;;;1.88;78.72;99167.61;120021;1150;24148;-62
2021/01/21 03:50:40;;;;;;;29.80;11.07;;;;;;;1.88;78.29;99173.89;120127;1150;22922;-62
2021/01/21 03:53:10;;;;;;;31.73;12.20;;;;;;;1.87;78.84;99177.84;119998;1149;22921;-62
2021/01/21 03:55:40;;;;;;;34.30;13.30;;;;;;;1.89;78.88;99180.14;120056;1150;26065;-62
2021/01/21 03:58:11;;;;;;;40.53;14.20;;;;;;;1.90;78.36;99176.97;120050;1149;22930;-63
2021/01/21 04:00:42;;;;;;;30.88;12.30;;;;;;;1.90;78.42;99173.44;120003;1150;23087;-64
2021/01/21 04:03:12;;;;;;;30.97;11.93;;;;;;;1.91;78.34;99178.49;120076;1149;22941;-62
2021/01/21 04:05:43;;;;;;;28.35;11.63;;;;;;;1.90;78.51;99182.47;120071;1150;22983;-62
2021/01/21 04:08:12;;;;;;;27.80;11.00;;;;;;;1.90;78.95;99171.47;120134;1149;22934;-62
2021/01/21 04:10:43;;;;;;;27.60;11.83;;;;;;;1.89;78.71;99172.66;120043;1150;22949;-63
2021/01/21 04:13:13;;;;;;;26.30;10.40;;;;;;;1.86;78.36;99170.05;120064;1150;22930;-62
2021/01/21 04:15:45;;;;;;;26.53;11.00;;;;;;;1.82;78.34;99161.89;120075;1151;22957;-62
2021/01/21 04:18:15;;;;;;;29.80;11.05;;;;;;;1.81;78.87;99160.37;119985;1151;23011;-62
2021/01/21 04:20:45;;;;;;;29.55;11.25;;;;;;;1.79;78.79;99167.52;120044;1150;26714;-63
2021/01/21 04:23:15;;;;;;;31.37;12.25;;;;;;;1.80;78.75;99171.83;120082;1151;22942;-63
2021/01/21 04:25:45;;;;;;;32.48;11.95;;;;;;;1.81;79.23;99170.59;120000;1150;24653;-63
2021/01/21 04:28:14;;;;;;;;;;;;;;;1.82;79.37;99172.15;120182;1150;22923;-63
2021/01/21 04:30:44;;;;;;;29.23;11.20;;;;;;;1.82;79.12;99166.64;119960;1150;23193;-63
2021/01/21 04:33:14;;;;;;;34.83;12.13;;;;;;;1.83;79.21;99168.17;120091;1150;27430;-63
2021/01/21 04:35:44;;;;;;;32.83;13.17;;;;;;;1.83;79.38;99166.20;120015;1150;24751;-62
2021/01/21 04:38:15;;;;;;;32.65;13.55;;;;;;;1.84;78.92;99159.48;119989;1150;24605;-62
2021/01/21 04:40:46;;;;;;;31.15;12.55;;;;;;;1.83;79.54;99165.42;120011;1150;22930;-61
2021/01/21 04:43:17;;;;;;;30.23;11.20;;;;;;;1.82;79.50;99153.64;120065;1150;23166;-63
2021/01/21 04:45:45;;;;;;;;;;;;;;;1.83;79.43;99149.68;120279;1150;24595;-63
2021/01/21 04:48:15;;;;;;;29.03;10.57;;;;;;;1.84;79.24;99147.70;120198;1150;21579;-63
2021/01/21 04:50:47;;;;;;;28.90;11.88;;;;;;;1.84;79.62;99153.98;120003;1150;25967;-62
2021/01/21 04:53:24;;;;;;;26.67;11.03;;;;;;;1.85;79.97;99158.27;119963;1150;22931;-62
2021/01/21 04:55:59;;;;;;;30.60;13.00;;;;;;;1.85;79.71;99160.23;120073;1150;22938;-62
2021/01/21 04:58:36;;;;;;;39.10;14.97;;;;;;;1.88;79.57;99173.89;120111;1149;22945;-62
2021/01/21 05:01:06;;;;;;;39.27;17.07;;;;;;;1.89;79.40;99178.17;120074;1149;23087;-61
2021/01/21 05:03:37;;;;;;;47.97;20.10;;;;;;;1.89;79.63;99171.89;120215;1151;22920;-63
2021/01/21 05:06:10;;;;;;;61.13;25.40;;;;;;;1.91;79.31;99175.73;120278;1150;23100;-62
2021/01/21 05:08:42;;;;;;;58.50;23.50;;;;;;;1.92;79.86;99177.29;120164;1150;24595;-61
2021/01/21 05:11:12;;;;;;;53.23;20.07;;;;;;;1.91;79.41;99167.48;120147;1150;23660;-62
2021/01/21 05:13:43;;;;;;;50.38;19.10;;;;;;;1.93;79.33;99169.78;120034;1151;22943;-61
2021/01/21 05:16:14;;;;;;;41.40;17.40;;;;;;;1.93;79.85;99164.27;120119;1150;27307;-62
2021/01/21 05:18:45;;;;;;;44.93;18.27;;;;;;;1.92;79.21;99171.78;119985;1149;23034;-62
2021/01/21 05:21:17;;;;;;;48.87;21.90;;;;;;;1.91;79.65;99167.48;120107;1151;24567;-62
2021/01/21 05:23:48;;;;;;;52.97;22.17;;;;;;;1.89;79.56;99169.13;120398;1149;23028;-62
2021/01/21 05:26:18;;;;;;;45.57;20.23;;;;;;;1.89;79.60;99163.63;120156;1151;23002;-61
2021/01/21 05:28:51;;;;;;;51.15;21.93;;;;;;;1.88;79.77;99162.88;119998;1150;26409;-62
2021/01/21 05:31:21;;;;;;;42.83;19.20;;;;;;;1.86;79.78;99167.30;120121;1149;27758;-63
2021/01/21 05:33:52;;;;;;;40.28;17.05;;;;;;;1.84;79.68;99161.47;120109;1151;24495;-65
2021/01/21 05:36:22;;;;;;;36.95;15.45;;;;;;;1.83;79.69;99162.67;120200;1150;23385;-62
2021/01/21 05:38:57;;;;;;;32.48;14.58;;;;;;;1.82;79.09;99150.88;119958;1150;23060;-63
2021/01/21 05:41:28;;;;;;;34.20;15.33;;;;;;;1.82;79.76;99161.14;120351;1149;26466;-63
2021/01/21 05:43:58;;;;;;;32.83;14.63;;;;;;;1.81;79.71;99151.34;120040;1151;22919;-64
2021/01/21 05:46:27;;;;;;;;;;;;;;;1.78;79.72;99139.23;120527;1150;23066;-63
2021/01/21 05:48:58;;;;;;;36.20;15.30;;;;;;;1.77;79.14;99137.71;119967;1151;21578;-62
2021/01/21 05:51:30;;;;;;;34.37;15.47;;;;;;;1.74;79.25;99144.09;120260;1150;22954;-63
2021/01/21 05:54:00;;;;;;;35.50;16.70;;;;;;;1.71;79.74;99145.00;120020;1150;22919;-63
2021/01/21 05:56:30;;;;;;;43.40;16.93;;;;;;;1.71;80.00;99146.98;120047;1151;23072;-63
2021/01/21 05:58:59;;;;;;;;;;;;;;;1.70;79.98;99142.70;120097;1151;22979;-62
2021/01/21 06:01:30;;;;;;;41.20;16.87;;;;;;;1.69;80.01;99143.90;119777;1150;24539;-62
2021/01/21 06:04:02;;;;;;;41.73;16.55;;;;;;;1.69;79.73;99141.92;119780;1149;23093;-63
2021/01/21 06:06:39;;;;;;;35.77;13.43;;;;;;;1.69;80.30;99135.65;120177;1150;23017;-62
2021/01/21 06:09:15;;;;;;;35.20;14.70;;;;;;;1.69;79.86;99133.67;120080;1149;26356;-62
2021/01/21 06:11:45;;;;;;;33.10;13.03;;;;;;;1.71;80.07;99124.97;120072;1149;27260;-62
2021/01/21 06:14:16;;;;;;;36.17;12.75;;;;;;;1.71;80.45;99119.46;119983;1150;23056;-63
2021/01/21 06:16:48;;;;;;;36.23;12.87;;;;;;;1.70;80.37;99117.94;120077;1150;24598;-62
2021/01/21 06:19:19;;;;;;;40.63;15.00;;;;;;;1.72;79.88;99110.01;119953;1150;24711;-63
2021/01/21 06:21:55;;;;;;;32.35;12.85;;;;;;;1.74;80.45;99119.33;120145;1149;23145;-63
2021/01/21 06:24:29;;;;;;;39.53;14.43;;;;;;;1.76;80.40;99110.66;120068;1150;23090;-63
2021/01/21 06:27:03;;;;;;;36.30;13.90;;;;;;;1.79;80.56;99112.49;120014;1149;24645;-62
2021/01/21 06:29:34;;;;;;;39.27;16.40;;;;;;;1.78;80.00;99113.72;120221;1149;26385;-63
2021/01/21 06:32:08;;;;;;;37.50;15.77;;;;;;;1.80;80.07;99106.53;119960;1150;28627;-62
2021/01/21 06:34:41;;;;;;;39.65;15.70;;;;;;;1.81;80.31;99110.84;120074;1149;27119;-63
2021/01/21 06:37:16;;;;;;;43.80;16.90;;;;;;;1.82;80.46;99109.61;120077;1150;22936;-61
2021/01/21 06:39:53;;;;;;;40.93;16.27;;;;;;;1.85;80.31;99113.45;120137;1150;22955;-62
2021/01/21 06:42:28;;;;;;;35.90;15.95;;;;;;;1.87;80.13;99111.02;120039;1151;22936;-62
2021/01/21 06:44:59;;;;;;;46.70;19.17;;;;;;;1.89;80.42;99108.59;120056;1149;22911;-63
2021/01/21 06:47:31;;;;;;;71.60;26.77;;;;;;;1.91;80.31;99098.67;120044;1150;22925;-63
2021/01/21 06:50:04;;;;;;;98.43;37.70;;;;;;;1.92;80.68;99099.45;119951;1150;22926;-62
2021/01/21 06:52:38;;;;;;;98.07;39.80;;;;;;;1.94;80.56;99111.55;119988;1150;22910;-63
2021/01/21 06:55:11;;;;;;;88.87;34.43;;;;;;;1.95;80.19;99112.30;120037;1149;22919;-62
2021/01/21 06:57:46;;;;;;;99.47;40.27;;;;;;;1.94;80.22;99117.06;120121;1150;22955;-62
2021/01/21 07:00:38;;;;;;;153.87;62.73;;;;;;;1.95;80.03;99113.08;120716;1150;23166;-62
2021/01/21 07:03:08;;;;;;;166.63;62.07;;;;;;;1.96;80.40;99114.63;120108;1150;27215;-61
2021/01/21 07:05:57;;;;;;;109.05;41.45;;;;;;;1.97;80.29;99109.87;120122;1149;23015;-62
2021/01/21 07:08:28;;;;;;;85.05;32.95;;;;;;;1.96;80.79;99120.13;120321;1150;24364;-63
2021/01/21 07:11:01;;;;;;;53.25;22.80;;;;;;;1.99;80.71;99115.69;119967;1149;22934;-63
2021/01/21 07:13:33;;;;;;;50.77;21.43;;;;;;;2.00;80.48;99115.27;120161;1150;23020;-64
2021/01/21 07:16:06;;;;;;;47.07;22.43;;;;;;;2.03;80.94;99122.61;120125;1150;23588;-62
2021/01/21 07:18:37;;;;;;;56.50;24.75;;;;;;;2.09;80.57;99125.58;120055;1150;23020;-62
2021/01/21 07:21:15;;;;;;;53.17;24.57;;;;;;;2.12;80.88;99125.44;119943;1150;24590;-62
2021/01/21 07:23:53;;;;;;;55.57;24.60;;;;;;;2.17;80.56;99121.34;120141;1150;23039;-62
2021/01/21 07:26:33;;;;;;;55.33;26.23;;;;;;;2.23;80.90;99125.83;120095;1150;22934;-64
2021/01/21 07:29:05;;;;;;;62.10;27.98;;;;;;;2.26;80.84;99122.16;120026;1150;25948;-63
2021/01/21 07:32:11;;;;;;;72.03;33.07;;;;;;;2.30;80.63;99131.05;119974;1149;23100;-62
2021/01/21 07:34:50;;;;;;;49.53;23.43;;;;;;;2.36;80.53;99129.25;119968;1151;23381;-62
2021/01/21 07:37:27;;;;;;;46.75;20.75;;;;;;;2.42;80.47;99123.95;119897;1150;22957;-63
2021/01/21 07:40:03;;;;;;;51.37;22.70;;;;;;;2.45;80.96;99126.56;119941;1150;22943;-62
2021/01/21 07:42:52;;;;;;;69.60;28.63;;;;;;;2.51;80.71;99126.73;122695;1149;23083;-64
2021/01/21 07:45:29;;;;;;;62.23;28.50;;;;;;;2.54;81.11;99123.09;120430;1150;22943;-61
2021/01/21 07:48:24;;;;;;;59.47;26.50;;;;;;;2.58;81.05;99115.45;120557;1150;28398;-63
2021/01/21 07:50:54;;;;;;;67.07;30.03;;;;;;;2.63;81.04;99123.11;120053;1149;23210;-63
2021/01/21 07:53:26;;;;;;;81.83;36.93;;;;;;;2.67;81.00;99125.75;119839;1150;22937;-63
2021/01/21 07:56:04;;;;;;;79.00;34.00;;;;;;;2.68;80.27;99130.80;119982;1149;27359;-63
2021/01/21 07:58:38;;;;;;;67.13;29.27;;;;;;;2.72;80.49;99128.67;120320;1149;22944;-62
2021/01/21 08:01:10;;;;;;;46.17;21.07;;;;;;;2.76;80.58;99136.80;119880;1151;22923;-64
2021/01/21 08:03:41;;;;;;;42.93;19.60;;;;;;;2.79;80.41;99146.92;120074;1150;22938;-64
2021/01/21 08:06:14;;;;;;;35.87;15.33;;;;;;;2.80;80.81;99148.45;120135;1149;26372;-65
2021/01/21 08:08:45;;;;;;;31.55;12.75;;;;;;;2.84;80.44;99154.59;120044;1150;22955;-64
2021/01/21 08:11:16;;;;;;;35.37;13.73;;;;;;;2.88;80.58;99160.73;120163;1149;26105;-63
2021/01/21 08:13:47;;;;;;;33.70;12.77;;;;;;;2.92;80.34;99150.34;120191;1150;23012;-64
2021/01/21 08:16:18;;;;;;;32.67;14.57;;;;;;;2.98;80.51;99140.28;119896;1150;22883;-63
2021/01/21 08:18:48;;;;;;;31.80;12.60;;;;;;;3.03;80.62;99142.42;120040;1150;22968;-64
2021/01/21 08:21:24;;;;;;;33.40;13.63;;;;;;;3.09;80.45;99135.08;120687;1151;22973;-63
2021/01/21 08:23:59;;;;;;;31.70;13.43;;;;;;;3.14;80.38;99153.80;120104;1149;22968;-64
2021/01/21 08:26:31;;;;;;;32.85;14.30;;;;;;;3.18;80.57;99151.67;120050;1149;24712;-63
2021/01/21 08:29:02;;;;;;;41.80;15.65;;;;;;;3.23;80.47;99164.84;119852;1150;24560;-64
2021/01/21 08:31:38;;;;;;;35.90;14.20;;;;;;;3.27;80.62;99168.23;119999;1150;23075;-64
2021/01/21 08:34:11;;;;;;;34.27;13.20;;;;;;;3.32;80.50;99175.91;119820;1150;22920;-64
2021/01/21 08:36:41;;;;;;;31.07;12.43;;;;;;;3.38;80.47;99185.13;119852;1150;22926;-61
2021/01/21 08:39:12;;;;;;;30.70;11.95;;;;;;;3.41;80.25;99186.98;119948;1150;27412;-63
2021/01/21 08:41:44;;;;;;;27.30;10.47;;;;;;;3.47;80.28;99204.47;119946;1150;23137;-64
2021/01/21 08:44:18;;;;;;;29.95;13.10;;;;;;;3.52;80.50;99194.83;120538;1149;27403;-64
2021/01/21 08:46:58;;;;;;;30.17;12.10;;;;;;;3.58;80.12;99185.47;120212;1149;22944;-63
2021/01/21 08:49:34;;;;;;;32.48;11.75;;;;;;;3.65;80.61;99198.98;120174;1150;25990;-63
2021/01/21 08:52:09;;;;;;;30.77;12.10;;;;;;;3.71;80.39;99196.38;120057;1150;23055;-64
2021/01/21 08:54:53;;;;;;;36.45;13.25;;;;;;;3.77;80.62;99189.80;119998;1150;27382;-64
2021/01/21 08:57:24;;;;;;;115.90;42.13;;;;;;;3.81;80.46;99184.89;120043;1150;27141;-64
2021/01/21 08:59:55;;;;;;;144.20;57.27;;;;;;;3.86;80.09;99166.96;120131;1149;22927;-64
2021/01/21 09:02:49;;;;;;;126.53;49.40;;;;;;;3.89;80.09;99146.73;120003;1150;22919;-65
2021/01/21 09:05:21;;;;;;;76.13;31.03;;;;;;;3.90;79.95;99179.39;119432;1153;23029;-64
2021/01/21 09:08:01;;;;;;;51.67;19.57;;;;;;;3.94;79.92;99177.25;119673;1153;22933;-63
2021/01/21 09:10:39;;;;;;;35.90;14.85;;;;;;;3.96;80.15;99172.03;119940;1152;22967;-64
2021/01/21 09:13:09;;;;;;;33.83;13.20;;;;;;;3.99;79.84;99168.33;119714;1153;22930;-64
2021/01/21 09:15:55;;;;;;;31.97;13.53;;;;;;;4.01;79.99;99148.56;119629;1153;22933;-64
2021/01/21 09:18:44;;;;;;;42.33;16.00;;;;;;;4.04;79.70;99139.34;119670;1153;22908;-64
2021/01/21 09:21:16;;;;;;;39.10;14.03;;;;;;;4.07;79.54;99133.68;119549;1153;22930;-64
2021/01/21 09:24:23;;;;;;;33.00;11.73;;;;;;;4.09;79.45;99131.22;119885;1153;23160;-64
2021/01/21 09:27:22;;;;;;;29.03;9.03;;;;;;;4.15;79.59;99134.13;119764;1153;23308;-64
2021/01/21 09:29:54;;;;;;;24.60;9.03;;;;;;;4.21;79.37;99153.59;119639;1154;23450;-64
2021/01/21 09:32:27;;;;;;;25.87;7.83;;;;;;;4.25;79.54;99152.22;119492;1154;23116;-64
2021/01/21 09:35:02;;;;;;;27.03;9.93;;;;;;;4.29;79.45;99152.82;119634;1154;22952;-64
2021/01/21 09:37:35;;;;;;;26.00;9.90;;;;;;;4.33;79.28;99153.43;119521;1154;23144;-65
2021/01/21 09:40:08;;;;;;;25.75;9.10;;;;;;;4.38;79.27;99144.53;119739;1154;26069;-63
2021/01/21 09:42:38;;;;;;;20.00;7.93;;;;;;;4.42;79.22;99139.61;119497;1154;24571;-64
2021/01/21 09:45:11;;;;;;;23.57;8.68;;;;;;;4.46;79.09;99118.10;119465;1152;22965;-63
2021/01/21 09:47:42;;;;;;;21.90;6.87;;;;;;;4.51;79.25;99117.45;120729;1153;22900;-64
2021/01/21 09:50:14;;;;;;;21.10;7.55;;;;;;;4.56;79.14;99121.59;119940;1153;24670;-63
2021/01/21 09:52:44;;;;;;;21.97;8.10;;;;;;;4.60;78.99;99124.96;119841;1152;22991;-65
2021/01/21 09:55:15;;;;;;;21.57;7.75;;;;;;;4.63;78.95;99121.28;119591;1153;22922;-65
2021/01/21 09:57:45;;;;;;;22.80;7.13;;;;;;;4.65;78.81;99116.05;119824;1152;22963;-65
2021/01/21 10:00:15;;;;;;;;;;;;;;;4.68;78.73;99118.64;119546;1153;22945;-64
2021/01/21 10:02:46;;;;;;;27.67;7.12;;;;;;;4.72;78.97;99121.23;120117;1153;21554;-64
2021/01/21 10:05:17;;;;;;;21.17;7.53;;;;;;;4.75;78.81;99129.38;119816;1151;22903;-64
2021/01/21 10:07:47;;;;;;;24.10;7.00;;;;;;;4.80;78.82;99127.98;121108;1150;22976;-64
2021/01/21 10:10:20;;;;;;;19.73;6.33;;;;;;;4.84;78.50;99129.33;120135;1150;22929;-65
2021/01/21 10:12:50;;;;;;;19.97;6.60;;;;;;;4.88;78.52;99129.18;120309;1150;22956;-64
2021/01/21 10:15:21;;;;;;;20.68;6.42;;;;;;;4.93;78.75;99121.00;120129;1150;23072;-64
2021/01/21 10:17:52;;;;;;;19.25;6.60;;;;;;;4.99;78.70;99104.53;120377;1149;26373;-65
2021/01/21 10:20:23;;;;;;;19.47;6.53;;;;;;;5.03;78.60;99107.89;120152;1150;24594;-63
2021/01/21 10:22:53;;;;;;;20.63;6.20;;;;;;;5.08;78.32;99112.02;120193;1150;22924;-63
2021/01/21 10:25:23;;;;;;;22.37;6.35;;;;;;;5.12;78.26;99102.31;119965;1150;27244;-63
2021/01/21 10:27:54;;;;;;;19.80;6.27;;;;;;;5.16;78.51;99102.13;119918;1150;25982;-62
2021/01/21 10:30:26;;;;;;;17.10;5.93;;;;;;;5.21;77.58;99096.74;120009;1149;22910;-63
2021/01/21 10:32:56;;;;;;;18.70;6.20;;;;;;;5.28;78.37;99104.67;120251;1150;22916;-66
2021/01/21 10:35:26;;;;;;;22.67;6.50;;;;;;;5.35;78.06;99106.33;120231;1150;25970;-64
2021/01/21 10:37:56;;;;;;;16.20;5.35;;;;;;;5.40;78.07;99116.77;120210;1149;23376;-64
2021/01/21 10:40:27;;;;;;;19.47;5.70;;;;;;;5.45;78.09;99116.87;120136;1150;23016;-64
2021/01/21 10:42:57;;;;;;;19.15;6.30;;;;;;;5.51;78.09;99109.45;120808;1150;23055;-64
2021/01/21 10:45:27;;;;;;;19.67;6.03;;;;;;;5.56;78.53;99106.05;120019;1150;22958;-63
2021/01/21 10:47:57;;;;;;;16.85;5.80;;;;;;;5.62;78.06;99101.38;120123;1150;22955;-60
2021/01/21 10:50:27;;;;;;;16.12;4.85;;;;;;;5.68;78.33;99101.48;120281;1150;27206;-61
2021/01/21 10:52:56;;;;;;;19.67;4.92;;;;;;;;;;120203;1149;22942;-61
2021/01/21 10:55:27;;;;;;;16.10;5.10;;;;;;;5.79;78.20;99118.33;120293;1150;23071;-61
2021/01/21 10:57:57;;;;;;;16.03;4.37;;;;;;;5.86;78.08;99120.75;119956;1150;23036;-60
2021/01/21 11:00:27;;;;;;;16.60;4.60;;;;;;;5.92;77.92;99115.34;120289;1149;22881;-60
2021/01/21 11:02:58;;;;;;;15.60;5.00;;;;;;;5.99;77.92;99120.49;120084;1149;25977;-60
2021/01/21 11:05:27;;;;;;;14.87;4.50;;;;;;;;;;120154;1150;22919;-60
2021/01/21 11:07:57;;;;;;;15.95;4.40;;;;;;;6.12;77.69;99126.55;120088;1150;23078;-60
2021/01/21 11:10:28;;;;;;;17.23;5.27;;;;;;;6.18;77.86;99113.55;120598;1150;23080;-61
2021/01/21 11:12:58;;;;;;;13.67;4.07;;;;;;;6.26;77.77;99103.63;119959;1150;22924;-61
2021/01/21 11:15:30;;;;;;;14.90;4.70;;;;;;;6.33;77.39;99106.77;120521;1150;22934;-62
2021/01/21 11:18:01;;;;;;;18.63;5.97;;;;;;;6.41;77.28;99093.31;119994;1150;22948;-60
2021/01/21 11:20:34;;;;;;;;;;;;;;;6.45;76.88;99088.33;119921;1150;23131;-61
2021/01/21 11:23:04;;;;;;;11.70;3.33;;;;;;;6.49;76.60;99086.13;119869;1150;21686;-61
2021/01/21 11:25:34;;;;;;;14.03;3.60;;;;;;;6.53;76.52;99089.47;119925;1150;22929;-61
2021/01/21 11:28:04;;;;;;;;;;;;;;;6.57;76.50;99081.72;119988;1150;23108;-61
2021/01/21 11:30:35;;;;;;;12.50;3.27;;;;;;;6.62;76.30;99069.20;120197;1150;21578;-60
2021/01/21 11:33:05;;;;;;;17.85;5.12;;;;;;;6.65;76.93;99068.22;120057;1150;26629;-61
2021/01/21 11:35:35;;;;;;;18.60;6.72;;;;;;;6.68;76.67;99076.36;119837;1151;24656;-61
2021/01/21 11:38:05;;;;;;;17.73;5.10;;;;;;;6.71;76.96;99071.84;119844;1151;22994;-61
2021/01/21 11:40:35;;;;;;;19.17;5.50;;;;;;;6.75;76.55;99080.73;119888;1151;23116;-61
2021/01/21 11:43:07;;;;;;;16.05;4.45;;;;;;;6.76;77.03;99077.50;119931;1150;23005;-61
2021/01/21 11:45:38;;;;;;;18.80;4.70;;;;;;;6.79;76.36;99082.06;120180;1150;22930;-61
2021/01/21 11:48:09;;;;;;;18.13;6.57;;;;;;;6.83;76.30;99071.53;119998;1149;25649;-62
2021/01/21 11:50:40;;;;;;;26.15;8.80;;;;;;;6.85;76.50;99071.81;120055;1149;22880;-61